createdAt,value
2017-05-15T00:01:56.798Z,1019.06
2017-05-15T00:02:56.822Z,1019.02
2017-05-15T00:03:56.845Z,1019.03
2017-05-15T00:04:56.867Z,1019.05
2017-05-15T00:05:56.891Z,1019
2017-05-15T00:06:56.914Z,1019.04
2017-05-15T00:07:56.936Z,1019.03
2017-05-15T00:08:56.959Z,1019.06
2017-05-15T00:09:56.981Z,1019.09
2017-05-15T00:10:57.005Z,1019.1
2017-05-15T00:11:57.028Z,1019.07
2017-05-15T00:12:57.051Z,1019.03
2017-05-15T00:13:57.074Z,1019.07
2017-05-15T00:14:57.097Z,1019.11
2017-05-15T00:15:57.120Z,1019.08
2017-05-15T00:17:57.165Z,1019.11
2017-05-15T00:18:57.189Z,1019.05
2017-05-15T00:19:57.212Z,1019.08
2017-05-15T00:20:57.234Z,1019.07
2017-05-15T00:21:57.257Z,1019.07
2017-05-15T00:22:57.279Z,1019.08
2017-05-15T00:23:57.303Z,1019.1
2017-05-15T00:24:57.326Z,1019.12
2017-05-15T00:25:57.350Z,1019.1
2017-05-15T00:26:57.371Z,1019.08
2017-05-15T00:27:57.395Z,1019.07
2017-05-15T00:28:57.417Z,1019.06
2017-05-15T00:29:57.441Z,1019.02
2017-05-15T00:30:57.463Z,1019.03
2017-05-15T00:32:57.510Z,1018.99
2017-05-15T00:33:57.531Z,1018.97
2017-05-15T00:34:57.555Z,1018.97
2017-05-15T00:35:57.577Z,1018.99
2017-05-15T00:36:57.603Z,1018.97
2017-05-15T00:37:57.623Z,1018.97
2017-05-15T00:38:57.646Z,1018.96
2017-05-15T00:39:57.669Z,1018.97
2017-05-15T00:40:57.690Z,1018.95
2017-05-15T00:41:57.713Z,1018.95
2017-05-15T00:42:57.736Z,1018.94
2017-05-15T00:43:57.761Z,1018.95
2017-05-15T00:44:57.781Z,1018.95
2017-05-15T00:45:57.804Z,1018.98
2017-05-15T00:46:57.827Z,1018.98
2017-05-15T00:47:57.850Z,1018.95
2017-05-15T00:48:57.876Z,1018.99
2017-05-15T00:49:57.897Z,1018.96
2017-05-15T00:50:57.918Z,1019.02
2017-05-15T00:51:57.940Z,1019.01
2017-05-15T00:52:57.968Z,1019.03
2017-05-15T00:53:57.985Z,1019.03
2017-05-15T00:54:58.009Z,1019.03
2017-05-15T00:55:58.030Z,1019.02
2017-05-15T00:56:58.053Z,1019.06
2017-05-15T00:57:58.077Z,1019.05
2017-05-15T00:58:58.099Z,1019.04
2017-05-15T00:59:58.121Z,1019.08
2017-05-15T01:00:58.143Z,1019.01
2017-05-15T01:01:58.167Z,1019.05
2017-05-15T01:02:58.188Z,1019
2017-05-15T01:04:58.235Z,1019.06
2017-05-15T01:05:58.257Z,1019.02
2017-05-15T01:06:58.279Z,1019.08
2017-05-15T01:07:58.302Z,1019.04
2017-05-15T01:08:58.324Z,1019.09
2017-05-15T01:09:58.348Z,1019.11
2017-05-15T01:10:58.369Z,1019.11
2017-05-15T01:11:58.392Z,1019.16
2017-05-15T01:12:58.416Z,1019.11
2017-05-15T01:13:58.438Z,1019.14
2017-05-15T01:14:58.460Z,1019.2
2017-05-15T01:15:58.482Z,1019.16
2017-05-15T01:16:58.506Z,1019.17
2017-05-15T01:17:58.528Z,1019.19
2017-05-15T01:18:58.551Z,1019.22
2017-05-15T01:20:58.597Z,1019.22
2017-05-15T01:21:58.622Z,1019.26
2017-05-15T01:22:58.642Z,1019.25
2017-05-15T01:23:58.665Z,1019.23
2017-05-15T01:24:58.687Z,1019.25
2017-05-15T01:25:58.710Z,1019.26
2017-05-15T01:26:58.732Z,1019.33
2017-05-15T01:27:58.755Z,1019.33
2017-05-15T01:28:58.777Z,1019.35
2017-05-15T01:29:58.801Z,1019.36
2017-05-15T01:30:58.823Z,1019.4
2017-05-15T01:31:58.847Z,1019.4
2017-05-15T01:32:58.868Z,1019.47
2017-05-15T01:33:58.891Z,1019.48
2017-05-15T01:34:58.915Z,1019.51
2017-05-15T01:36:58.959Z,1019.67
2017-05-15T01:37:58.982Z,1019.66
2017-05-15T01:38:59.005Z,1019.67
2017-05-15T01:39:59.027Z,1019.68
2017-05-15T01:40:59.050Z,1019.69
2017-05-15T01:41:59.073Z,1019.65
2017-05-15T01:42:59.096Z,1019.68
2017-05-15T01:43:59.118Z,1019.7
2017-05-15T01:44:59.142Z,1019.67
2017-05-15T01:45:59.165Z,1019.65
2017-05-15T01:46:59.186Z,1019.65
2017-05-15T01:47:59.209Z,1019.63
2017-05-15T01:48:59.233Z,1019.6
2017-05-15T01:49:59.256Z,1019.59
2017-05-15T01:50:59.278Z,1019.61
2017-05-15T01:52:59.323Z,1019.62
2017-05-15T01:53:59.347Z,1019.62
2017-05-15T01:54:59.369Z,1019.67
2017-05-15T01:55:59.392Z,1019.65
2017-05-15T01:56:59.415Z,1019.65
2017-05-15T01:57:59.438Z,1019.68
2017-05-15T01:58:59.460Z,1019.67
2017-05-15T01:59:59.483Z,1019.69
2017-05-15T02:00:59.507Z,1019.64
2017-05-15T02:01:59.528Z,1019.68
2017-05-15T02:02:59.551Z,1019.68
2017-05-15T02:03:59.574Z,1019.61
2017-05-15T02:04:59.598Z,1019.64
2017-05-15T02:05:59.621Z,1019.6
2017-05-15T02:07:59.668Z,1019.58
2017-05-15T02:08:59.690Z,1019.59
2017-05-15T02:09:59.712Z,1019.64
2017-05-15T02:10:59.735Z,1019.61
2017-05-15T02:11:59.759Z,1019.65
2017-05-15T02:12:59.781Z,1019.66
2017-05-15T02:13:59.804Z,1019.67
2017-05-15T02:14:59.827Z,1019.72
2017-05-15T02:15:59.850Z,1019.73
2017-05-15T02:16:59.873Z,1019.72
2017-05-15T02:17:59.898Z,1019.71
2017-05-15T02:18:59.919Z,1019.69
2017-05-15T02:19:59.941Z,1019.65
2017-05-15T02:20:59.964Z,1019.67
2017-05-15T02:21:59.987Z,1019.67
2017-05-15T02:23:00.011Z,1019.71
2017-05-15T02:24:00.033Z,1019.69
2017-05-15T02:25:00.056Z,1019.7
2017-05-15T02:26:00.083Z,1019.7
2017-05-15T02:27:00.101Z,1019.69
2017-05-15T02:28:00.124Z,1019.71
2017-05-15T02:29:00.148Z,1019.68
2017-05-15T02:30:00.171Z,1019.66
2017-05-15T02:31:00.198Z,1019.65
2017-05-15T02:32:00.216Z,1019.67
2017-05-15T02:33:00.239Z,1019.67
2017-05-15T02:34:00.262Z,1019.63
2017-05-15T02:35:00.284Z,1019.6
2017-05-15T02:36:00.307Z,1019.66
2017-05-15T02:37:00.331Z,1019.61
2017-05-15T02:38:00.353Z,1019.66
2017-05-15T02:40:00.399Z,1019.7
2017-05-15T02:41:00.422Z,1019.68
2017-05-15T02:42:00.444Z,1019.68
2017-05-15T02:43:00.467Z,1019.67
2017-05-15T02:44:00.490Z,1019.71
2017-05-15T02:45:00.513Z,1019.71
2017-05-15T02:46:00.535Z,1019.69
2017-05-15T02:47:00.558Z,1019.72
2017-05-15T02:48:00.582Z,1019.67
2017-05-15T02:49:00.604Z,1019.66
2017-05-15T02:50:00.627Z,1019.74
2017-05-15T02:51:00.650Z,1019.72
2017-05-15T02:52:00.673Z,1019.73
2017-05-15T02:53:00.695Z,1019.76
2017-05-15T02:54:00.718Z,1019.76
2017-05-15T02:56:00.765Z,1019.75
2017-05-15T02:57:00.787Z,1019.76
2017-05-15T02:58:00.810Z,1019.74
2017-05-15T02:59:00.862Z,1019.78
2017-05-15T03:00:00.855Z,1019.77
2017-05-15T03:01:00.879Z,1019.78
2017-05-15T03:02:00.902Z,1019.79
2017-05-15T03:03:00.925Z,1019.77
2017-05-15T03:04:00.947Z,1019.76
2017-05-15T03:05:00.970Z,1019.77
2017-05-15T03:06:00.993Z,1019.79
2017-05-15T03:07:01.016Z,1019.79
2017-05-15T03:08:01.038Z,1019.79
2017-05-15T03:09:01.062Z,1019.78
2017-05-15T03:10:01.085Z,1019.76
2017-05-15T03:12:01.129Z,1019.79
2017-05-15T03:13:01.154Z,1019.79
2017-05-15T03:14:01.176Z,1019.79
2017-05-15T03:15:01.199Z,1019.82
2017-05-15T03:16:01.221Z,1019.84
2017-05-15T03:17:01.245Z,1019.8
2017-05-15T03:18:01.270Z,1019.78
2017-05-15T03:19:01.293Z,1019.74
2017-05-15T03:20:01.313Z,1019.72
2017-05-15T03:21:01.336Z,1019.72
2017-05-15T03:22:01.358Z,1019.73
2017-05-15T03:23:01.381Z,1019.71
2017-05-15T03:24:01.404Z,1019.72
2017-05-15T03:25:01.427Z,1019.71
2017-05-15T03:26:01.449Z,1019.71
2017-05-15T03:28:01.496Z,1019.78
2017-05-15T03:29:01.518Z,1019.77
2017-05-15T03:30:01.541Z,1019.77
2017-05-15T03:31:01.564Z,1019.8
2017-05-15T03:32:01.587Z,1019.8
2017-05-15T03:33:01.609Z,1019.77
2017-05-15T03:34:01.633Z,1019.83
2017-05-15T03:35:01.655Z,1019.81
2017-05-15T03:36:01.679Z,1019.83
2017-05-15T03:37:01.701Z,1019.84
2017-05-15T03:38:01.724Z,1019.81
2017-05-15T03:39:01.747Z,1019.81
2017-05-15T03:40:01.769Z,1019.86
2017-05-15T03:41:01.794Z,1019.86
2017-05-15T03:43:01.839Z,1019.88
2017-05-15T03:44:01.862Z,1019.91
2017-05-15T03:45:01.885Z,1019.92
2017-05-15T03:46:01.908Z,1019.93
2017-05-15T03:47:01.931Z,1019.93
2017-05-15T03:48:01.953Z,1019.91
2017-05-15T03:49:01.975Z,1019.97
2017-05-15T03:50:01.999Z,1019.96
2017-05-15T03:51:02.022Z,1019.95
2017-05-15T03:52:02.045Z,1019.95
2017-05-15T03:53:02.068Z,1019.94
2017-05-15T03:54:02.091Z,1019.92
2017-05-15T03:55:02.114Z,1019.98
2017-05-15T03:56:02.136Z,1019.96
2017-05-15T03:57:02.160Z,1019.94
2017-05-15T03:58:02.183Z,1019.92
2017-05-15T03:59:02.205Z,1019.96
2017-05-15T04:00:02.228Z,1019.97
2017-05-15T04:01:02.252Z,1019.93
2017-05-15T04:02:02.274Z,1019.94
2017-05-15T04:03:02.297Z,1019.97
2017-05-15T04:04:02.321Z,1019.98
2017-05-15T04:05:02.344Z,1019.99
2017-05-15T04:06:02.366Z,1019.99
2017-05-15T04:07:02.390Z,1019.99
2017-05-15T04:08:02.412Z,1019.98
2017-05-15T04:09:02.436Z,1020.03
2017-05-15T04:10:02.458Z,1020.03
2017-05-15T04:11:02.482Z,1020.02
2017-05-15T04:12:02.505Z,1020.05
2017-05-15T04:13:02.527Z,1020.08
2017-05-15T04:15:02.576Z,1020.15
2017-05-15T04:16:02.597Z,1020.11
2017-05-15T04:17:02.619Z,1020.13
2017-05-15T04:18:02.642Z,1020.19
2017-05-15T04:19:02.666Z,1020.21
2017-05-15T04:20:02.690Z,1020.23
2017-05-15T04:21:02.711Z,1020.21
2017-05-15T04:22:02.735Z,1020.24
2017-05-15T04:23:02.758Z,1020.28
2017-05-15T04:24:02.780Z,1020.3
2017-05-15T04:25:02.803Z,1020.28
2017-05-15T04:26:02.827Z,1020.33
2017-05-15T04:27:02.851Z,1020.37
2017-05-15T04:28:02.873Z,1020.31
2017-05-15T04:29:02.897Z,1020.34
2017-05-15T04:31:02.944Z,1020.37
2017-05-15T04:32:02.965Z,1020.41
2017-05-15T04:33:02.989Z,1020.45
2017-05-15T04:34:03.013Z,1020.45
2017-05-15T04:35:03.040Z,1020.46
2017-05-15T04:36:03.059Z,1020.45
2017-05-15T04:37:03.082Z,1020.52
2017-05-15T04:38:03.105Z,1020.52
2017-05-15T04:39:03.129Z,1020.52
2017-05-15T04:40:03.150Z,1020.54
2017-05-15T04:41:03.175Z,1020.58
2017-05-15T04:42:03.198Z,1020.56
2017-05-15T04:43:03.221Z,1020.59
2017-05-15T04:44:03.244Z,1020.62
2017-05-15T04:45:03.268Z,1020.62
2017-05-15T04:47:03.314Z,1020.64
2017-05-15T04:48:03.338Z,1020.61
2017-05-15T04:49:03.361Z,1020.62
2017-05-15T04:50:03.384Z,1020.63
2017-05-15T04:51:03.407Z,1020.66
2017-05-15T04:52:03.431Z,1020.64
2017-05-15T04:53:03.455Z,1020.63
2017-05-15T04:54:03.478Z,1020.65
2017-05-15T04:55:03.501Z,1020.65
2017-05-15T04:56:03.525Z,1020.62
2017-05-15T04:57:03.549Z,1020.64
2017-05-15T04:58:03.571Z,1020.65
2017-05-15T04:59:03.596Z,1020.66
2017-05-15T05:00:03.620Z,1020.68
2017-05-15T05:01:03.643Z,1020.68
2017-05-15T05:03:03.691Z,1020.72
2017-05-15T05:04:03.717Z,1020.72
2017-05-15T05:05:03.737Z,1020.69
2017-05-15T05:06:03.762Z,1020.76
2017-05-15T05:07:03.786Z,1020.8
2017-05-15T05:08:03.809Z,1020.82
2017-05-15T05:09:03.833Z,1020.97
2017-05-15T05:10:03.858Z,1020.95
2017-05-15T05:11:03.883Z,1021.01
2017-05-15T05:12:03.925Z,1021.05
2017-05-15T05:13:03.932Z,1021.15
2017-05-15T05:14:03.957Z,1021.19
2017-05-15T05:15:03.985Z,1021.21
2017-05-15T05:16:04.009Z,1021.26
2017-05-15T05:18:04.063Z,1021.25
2017-05-15T05:19:04.088Z,1021.34
2017-05-15T05:20:04.115Z,1021.42
2017-05-15T05:21:04.143Z,1021.41
2017-05-15T05:22:04.171Z,1021.48
2017-05-15T05:23:04.199Z,1021.47
2017-05-15T05:24:04.226Z,1021.52
2017-05-15T05:25:04.256Z,1021.52
2017-05-15T05:26:04.286Z,1021.51
2017-05-15T05:27:04.314Z,1021.58
2017-05-15T05:28:04.343Z,1021.64
2017-05-15T05:29:04.374Z,1021.73
2017-05-15T05:30:04.403Z,1021.7
2017-05-15T05:31:04.435Z,1021.66
2017-05-15T05:32:04.465Z,1021.68
2017-05-15T05:33:04.496Z,1021.67
2017-05-15T05:34:04.529Z,1021.66
2017-05-15T05:35:04.558Z,1021.68
2017-05-15T05:36:04.591Z,1021.69
2017-05-15T05:37:04.621Z,1021.66
2017-05-15T05:38:04.654Z,1021.7
2017-05-15T05:39:04.686Z,1021.71
2017-05-15T05:40:04.719Z,1021.76
2017-05-15T05:41:04.750Z,1021.71
2017-05-15T05:42:04.784Z,1021.75
2017-05-15T05:43:04.817Z,1021.75
2017-05-15T05:44:04.851Z,1021.8
2017-05-15T05:45:04.883Z,1021.76
2017-05-15T05:46:04.916Z,1021.82
2017-05-15T05:47:04.977Z,1021.84
2017-05-15T05:48:04.983Z,1021.87
2017-05-15T05:50:05.052Z,1021.85
2017-05-15T05:51:05.086Z,1021.85
2017-05-15T05:52:05.160Z,1021.88
2017-05-15T05:53:05.153Z,1021.89
2017-05-15T05:54:05.187Z,1021.88
2017-05-15T05:55:05.222Z,1021.64
2017-05-15T05:56:05.256Z,1021.61
2017-05-15T05:57:05.291Z,1021.79
2017-05-15T05:58:05.325Z,1021.79
2017-05-15T05:59:05.358Z,1021.59
2017-05-15T06:00:05.392Z,1021.93
2017-05-15T06:01:05.426Z,1022.01
2017-05-15T06:02:05.461Z,1022.1
2017-05-15T06:03:05.493Z,1022.29
2017-05-15T06:04:05.526Z,1022.29
2017-05-15T06:06:05.595Z,1022.34
2017-05-15T06:07:05.631Z,1022.39
2017-05-15T06:08:05.663Z,1022.48
2017-05-15T06:09:05.697Z,1022.5
2017-05-15T06:10:05.730Z,1022.46
2017-05-15T06:11:05.766Z,1022.41
2017-05-15T06:12:05.800Z,1022.34
2017-05-15T06:13:05.836Z,1022.34
2017-05-15T06:14:05.870Z,1022.41
2017-05-15T06:15:05.904Z,1022.42
2017-05-15T06:16:05.940Z,1022.3
2017-05-15T06:17:05.975Z,1022.38
2017-05-15T06:18:06.009Z,1022.48
2017-05-15T06:19:06.044Z,1022.5
2017-05-15T06:20:06.080Z,1022.48
2017-05-15T06:22:06.150Z,1022.54
2017-05-15T06:23:06.187Z,1022.52
2017-05-15T06:24:06.221Z,1022.55
2017-05-15T06:25:06.257Z,1022.55
2017-05-15T06:26:06.292Z,1022.62
2017-05-15T06:27:06.328Z,1022.62
2017-05-15T06:28:06.364Z,1022.61
2017-05-15T06:29:06.399Z,1022.58
2017-05-15T06:30:06.435Z,1022.57
2017-05-15T06:31:06.472Z,1022.61
2017-05-15T06:32:06.508Z,1022.63
2017-05-15T06:33:06.544Z,1022.67
2017-05-15T06:34:06.581Z,1022.69
2017-05-15T06:35:06.617Z,1022.81
2017-05-15T06:36:06.653Z,1022.85
2017-05-15T06:38:06.726Z,1022.91
2017-05-15T06:39:06.763Z,1022.99
2017-05-15T06:40:06.797Z,1022.96
2017-05-15T06:41:06.835Z,1022.96
2017-05-15T06:42:06.871Z,1023.01
2017-05-15T06:43:06.907Z,1023.09
2017-05-15T06:44:06.999Z,1023.17
2017-05-15T06:45:06.980Z,1023.17
2017-05-15T06:46:07.018Z,1023.17
2017-05-15T06:47:07.053Z,1023.24
2017-05-15T06:48:07.089Z,1023.23
2017-05-15T06:49:07.127Z,1023.3
2017-05-15T06:50:07.163Z,1023.32
2017-05-15T06:51:07.201Z,1023.27
2017-05-15T06:53:07.275Z,1023.46
2017-05-15T06:54:07.315Z,1023.47
2017-05-15T06:55:07.348Z,1023.56
2017-05-15T06:56:07.385Z,1023.63
2017-05-15T06:57:07.421Z,1023.65
2017-05-15T06:58:07.458Z,1023.58
2017-05-15T06:59:07.495Z,1023.56
2017-05-15T07:00:07.532Z,1023.35
2017-05-15T07:01:07.570Z,1023.37
2017-05-15T07:02:07.606Z,1023.49
2017-05-15T07:03:07.642Z,1023.39
2017-05-15T07:04:07.679Z,1023.56
2017-05-15T07:05:07.716Z,1023.6
2017-05-15T07:06:07.751Z,1023.76
2017-05-15T07:07:07.789Z,1023.77
2017-05-15T07:08:07.826Z,1023.73
2017-05-15T07:09:07.861Z,1023.77
2017-05-15T07:10:07.898Z,1023.73
2017-05-15T07:11:07.935Z,1023.75
2017-05-15T07:12:07.972Z,1023.75
2017-05-15T07:13:08.008Z,1023.73
2017-05-15T07:14:08.045Z,1023.68
2017-05-15T07:15:08.083Z,1023.57
2017-05-15T07:16:08.120Z,1023.61
2017-05-15T07:17:08.157Z,1023.61
2017-05-15T07:18:08.193Z,1023.53
2017-05-15T07:19:08.232Z,1023.55
2017-05-15T07:20:08.267Z,1023.57
2017-05-15T07:21:08.306Z,1023.54
2017-05-15T07:22:08.343Z,1023.5
2017-05-15T07:23:08.379Z,1023.48
2017-05-15T07:25:08.453Z,1023.43
2017-05-15T07:26:08.490Z,1023.3
2017-05-15T07:27:08.529Z,1023.31
2017-05-15T07:28:08.565Z,1023.39
2017-05-15T07:29:08.602Z,1023.35
2017-05-15T07:30:08.640Z,1023.35
2017-05-15T07:31:08.676Z,1023.32
2017-05-15T07:32:08.714Z,1023.3
2017-05-15T07:33:08.752Z,1023.26
2017-05-15T07:34:08.788Z,1023.22
2017-05-15T07:35:08.826Z,1023.24
2017-05-15T07:36:08.863Z,1023.21
2017-05-15T07:37:08.901Z,1023.23
2017-05-15T07:38:08.938Z,1023.25
2017-05-15T07:39:08.977Z,1023.2
2017-05-15T07:41:09.052Z,1023.22
2017-05-15T07:42:09.089Z,1022.89
2017-05-15T07:43:09.129Z,1023.25
2017-05-15T07:44:09.165Z,1022.65
2017-05-15T07:45:09.202Z,1022.65
2017-05-15T07:46:09.241Z,1023
2017-05-15T07:47:09.277Z,1022.72
2017-05-15T07:48:09.314Z,1022.63
2017-05-15T07:49:09.351Z,1022.67
2017-05-15T07:50:09.388Z,1022.7
2017-05-15T07:51:09.424Z,1022.79
2017-05-15T07:52:09.461Z,1022.71
2017-05-15T07:53:09.496Z,1022.81
2017-05-15T07:54:09.532Z,1022.78
2017-05-15T07:55:09.569Z,1022.74
2017-05-15T07:57:09.639Z,1022.73
2017-05-15T07:58:09.675Z,1022.91
2017-05-15T07:59:09.710Z,1023.01
2017-05-15T08:00:09.744Z,1023.06
2017-05-15T08:01:09.779Z,1022.9
2017-05-15T08:02:09.815Z,1022.82
2017-05-15T08:03:09.849Z,1023.16
2017-05-15T08:04:09.884Z,1022.83
2017-05-15T08:05:09.918Z,1023.05
2017-05-15T08:06:09.953Z,1022.86
2017-05-15T08:07:09.987Z,1022.8
2017-05-15T08:08:10.022Z,1022.9
2017-05-15T08:09:10.057Z,1023.19
2017-05-15T08:10:10.095Z,1022.96
2017-05-15T08:11:10.125Z,1022.96
2017-05-15T08:13:10.195Z,1023.1
2017-05-15T08:14:10.230Z,1022.95
2017-05-15T08:15:10.263Z,1022.82
2017-05-15T08:16:10.298Z,1022.82
2017-05-15T08:17:10.331Z,1022.89
2017-05-15T08:18:10.366Z,1022.82
2017-05-15T08:19:10.400Z,1022.83
2017-05-15T08:20:10.433Z,1022.81
2017-05-15T08:21:10.467Z,1022.81
2017-05-15T08:22:10.500Z,1022.87
2017-05-15T08:23:10.535Z,1022.83
2017-05-15T08:24:10.568Z,1023.03
2017-05-15T08:25:10.602Z,1022.83
2017-05-15T08:26:10.635Z,1023.45
2017-05-15T08:28:10.702Z,1022.96
2017-05-15T08:29:10.734Z,1022.99
2017-05-15T08:30:10.772Z,1022.96
2017-05-15T08:31:10.800Z,1022.94
2017-05-15T08:32:10.833Z,1022.94
2017-05-15T08:33:10.866Z,1022.97
2017-05-15T08:34:10.898Z,1022.99
2017-05-15T08:35:10.931Z,1023.28
2017-05-15T08:36:10.962Z,1023.45
2017-05-15T08:37:10.995Z,1023.12
2017-05-15T08:38:11.028Z,1023.09
2017-05-15T08:39:11.061Z,1023.18
2017-05-15T08:40:11.092Z,1023.43
2017-05-15T08:41:11.125Z,1023.48
2017-05-15T08:42:11.158Z,1023.46
2017-05-15T08:43:11.190Z,1023.46
2017-05-15T08:44:11.221Z,1023.46
2017-05-15T08:45:11.254Z,1023.43
2017-05-15T08:46:11.288Z,1023.34
2017-05-15T08:47:11.323Z,1023.35
2017-05-15T08:48:11.356Z,1023.35
2017-05-15T08:49:11.386Z,1023.32
2017-05-15T08:50:11.420Z,1023.4
2017-05-15T08:51:11.452Z,1023.36
2017-05-15T08:52:11.486Z,1023.39
2017-05-15T08:53:11.520Z,1023.44
2017-05-15T08:54:11.553Z,1023.36
2017-05-15T08:55:11.587Z,1023.48
2017-05-15T08:56:11.621Z,1023.34
2017-05-15T08:57:11.654Z,1023.39
2017-05-15T08:58:11.687Z,1023.45
2017-05-15T09:00:11.755Z,1023.49
2017-05-15T09:01:11.790Z,1023.43
2017-05-15T09:02:11.822Z,1023.5
2017-05-15T09:03:11.906Z,1023.35
2017-05-15T09:04:11.890Z,1023.43
2017-05-15T09:05:11.924Z,1023.46
2017-05-15T09:06:11.958Z,1023.52
2017-05-15T09:07:11.991Z,1023.54
2017-05-15T09:08:12.026Z,1023.55
2017-05-15T09:09:12.059Z,1023.53
2017-05-15T09:10:12.092Z,1023.61
2017-05-15T09:11:12.126Z,1023.54
2017-05-15T09:12:12.161Z,1023.56
2017-05-15T09:13:12.193Z,1023.56
2017-05-15T09:14:12.229Z,1023.58
2017-05-15T09:16:12.296Z,1023.61
2017-05-15T09:17:12.330Z,1023.53
2017-05-15T09:18:12.364Z,1023.53
2017-05-15T09:19:12.397Z,1023.59
2017-05-15T09:20:12.430Z,1023.61
2017-05-15T09:21:12.465Z,1023.74
2017-05-15T09:22:12.499Z,1023.69
2017-05-15T09:23:12.531Z,1023.69
2017-05-15T09:24:12.565Z,1023.69
2017-05-15T09:25:12.598Z,1023.75
2017-05-15T09:26:12.633Z,1023.81
2017-05-15T09:27:12.666Z,1023.76
2017-05-15T09:28:12.698Z,1023.82
2017-05-15T09:29:12.733Z,1023.76
2017-05-15T09:30:12.766Z,1023.72
2017-05-15T09:32:12.832Z,1023.79
2017-05-15T09:33:12.865Z,1023.75
2017-05-15T09:34:12.898Z,1023.67
2017-05-15T09:35:12.930Z,1023.66
2017-05-15T09:36:12.964Z,1023.71
2017-05-15T09:37:12.996Z,1023.73
2017-05-15T09:38:13.029Z,1023.74
2017-05-15T09:39:13.060Z,1023.77
2017-05-15T09:40:13.097Z,1023.82
2017-05-15T09:41:13.126Z,1023.79
2017-05-15T09:42:13.158Z,1023.79
2017-05-15T09:43:13.190Z,1023.81
2017-05-15T09:44:13.223Z,1023.79
2017-05-15T09:45:13.255Z,1023.82
2017-05-15T09:46:13.288Z,1023.85
2017-05-15T09:48:13.349Z,1023.82
2017-05-15T09:49:13.382Z,1023.85
2017-05-15T09:50:13.413Z,1023.86
2017-05-15T09:51:13.445Z,1023.9
2017-05-15T09:52:13.477Z,1023.9
2017-05-15T09:53:13.507Z,1023.92
2017-05-15T09:54:13.541Z,1023.85
2017-05-15T09:55:13.572Z,1023.88
2017-05-15T09:56:13.604Z,1023.95
2017-05-15T09:57:13.634Z,1023.89
2017-05-15T09:58:13.666Z,1023.93
2017-05-15T09:59:13.698Z,1023.93
2017-05-15T10:00:13.730Z,1023.93
2017-05-15T10:01:13.761Z,1023.92
2017-05-15T10:03:13.824Z,1023.97
2017-05-15T10:04:13.855Z,1024
2017-05-15T10:05:13.887Z,1023.9
2017-05-15T10:06:13.918Z,1023.94
2017-05-15T10:07:13.951Z,1023.94
2017-05-15T10:08:13.981Z,1023.93
2017-05-15T10:09:14.012Z,1023.94
2017-05-15T10:10:14.045Z,1023.87
2017-05-15T10:11:14.075Z,1023.9
2017-05-15T10:12:14.107Z,1023.85
2017-05-15T10:13:14.138Z,1023.92
2017-05-15T10:14:14.169Z,1023.92
2017-05-15T10:15:14.198Z,1023.87
2017-05-15T10:16:14.233Z,1023.95
2017-05-15T10:17:14.262Z,1023.88
2017-05-15T10:18:14.293Z,1023.89
2017-05-15T10:19:14.324Z,1023.89
2017-05-15T10:20:14.354Z,1023.91
2017-05-15T10:21:14.385Z,1023.91
2017-05-15T10:22:14.418Z,1023.88
2017-05-15T10:23:14.447Z,1023.91
2017-05-15T10:24:14.479Z,1023.89
2017-05-15T10:25:14.510Z,1023.82
2017-05-15T10:26:14.538Z,1023.82
2017-05-15T10:27:14.570Z,1023.77
2017-05-15T10:28:14.601Z,1023.8
2017-05-15T10:29:14.631Z,1023.77
2017-05-15T10:30:14.663Z,1023.76
2017-05-15T10:31:14.693Z,1023.78
2017-05-15T10:32:14.723Z,1023.8
2017-05-15T10:33:14.752Z,1023.74
2017-05-15T10:35:14.815Z,1023.69
2017-05-15T10:36:14.845Z,1023.76
2017-05-15T10:37:14.874Z,1023.69
2017-05-15T10:38:14.905Z,1023.67
2017-05-15T10:39:14.935Z,1023.68
2017-05-15T10:40:14.968Z,1023.7
2017-05-15T10:41:14.996Z,1023.71
2017-05-15T10:42:15.028Z,1023.72
2017-05-15T10:43:15.059Z,1023.7
2017-05-15T10:44:15.091Z,1023.72
2017-05-15T10:45:15.119Z,1023.69
2017-05-15T10:46:15.149Z,1023.66
2017-05-15T10:47:15.181Z,1023.63
2017-05-15T10:48:15.209Z,1023.59
2017-05-15T10:49:15.241Z,1023.61
2017-05-15T10:51:15.301Z,1023.54
2017-05-15T10:52:15.332Z,1023.59
2017-05-15T10:53:15.361Z,1023.55
2017-05-15T10:54:15.390Z,1023.52
2017-05-15T10:55:15.421Z,1023.56
2017-05-15T10:56:15.456Z,1023.55
2017-05-15T10:57:15.481Z,1023.53
2017-05-15T10:58:15.510Z,1023.56
2017-05-15T10:59:15.539Z,1023.58
2017-05-15T11:00:15.569Z,1023.56
2017-05-15T11:01:15.599Z,1023.57
2017-05-15T11:02:15.628Z,1023.53
2017-05-15T11:03:15.657Z,1023.49
2017-05-15T11:04:15.687Z,1023.55
2017-05-15T11:05:15.717Z,1023.55
2017-05-15T11:07:15.775Z,1023.57
2017-05-15T11:08:15.805Z,1023.54
2017-05-15T11:09:15.834Z,1023.49
2017-05-15T11:10:15.862Z,1023.58
2017-05-15T11:11:15.892Z,1023.52
2017-05-15T11:12:15.923Z,1023.51
2017-05-15T11:13:15.953Z,1023.5
2017-05-15T11:14:15.980Z,1023.54
2017-05-15T11:15:16.010Z,1023.49
2017-05-15T11:16:16.039Z,1023.55
2017-05-15T11:17:16.068Z,1023.49
2017-05-15T11:18:16.098Z,1023.53
2017-05-15T11:19:16.128Z,1023.47
2017-05-15T11:20:16.157Z,1023.47
2017-05-15T11:21:16.436Z,1023.49
2017-05-15T11:23:16.245Z,1023.48
2017-05-15T11:24:16.274Z,1023.5
2017-05-15T11:25:16.303Z,1023.45
2017-05-15T11:26:16.332Z,1023.47
2017-05-15T11:27:16.361Z,1023.46
2017-05-15T11:28:16.391Z,1023.45
2017-05-15T11:29:16.420Z,1023.38
2017-05-15T11:30:16.449Z,1023.33
2017-05-15T11:31:16.479Z,1023.34
2017-05-15T11:32:16.507Z,1023.43
2017-05-15T11:33:16.536Z,1023.36
2017-05-15T11:34:16.566Z,1023.37
2017-05-15T11:35:16.595Z,1023.36
2017-05-15T11:36:16.625Z,1023.37
2017-05-15T11:38:16.683Z,1023.43
2017-05-15T11:39:16.711Z,1023.36
2017-05-15T11:40:16.741Z,1023.36
2017-05-15T11:41:16.770Z,1023.36
2017-05-15T11:42:16.799Z,1023.32
2017-05-15T11:43:16.827Z,1023.32
2017-05-15T11:44:16.857Z,1023.28
2017-05-15T11:45:16.886Z,1023.32
2017-05-15T11:46:16.918Z,1023.3
2017-05-15T11:47:16.944Z,1023.27
2017-05-15T11:48:16.972Z,1023.38
2017-05-15T11:49:17.002Z,1023.33
2017-05-15T11:50:17.030Z,1023.34
2017-05-15T11:51:17.059Z,1023.37
2017-05-15T11:52:17.088Z,1023.37
2017-05-15T11:53:17.117Z,1023.32
2017-05-15T11:54:17.145Z,1023.32
2017-05-15T11:55:17.173Z,1023.31
2017-05-15T11:56:17.203Z,1023.3
2017-05-15T11:57:17.230Z,1023.27
2017-05-15T11:58:17.258Z,1023.29
2017-05-15T11:59:17.290Z,1023.36
2017-05-15T12:00:17.316Z,1023.37
2017-05-15T12:01:17.344Z,1023.38
2017-05-15T12:02:17.372Z,1023.36
2017-05-15T12:03:17.401Z,1023.41
2017-05-15T12:04:17.430Z,1023.4
2017-05-15T12:05:17.457Z,1023.36
2017-05-15T12:06:17.487Z,1023.4
2017-05-15T12:07:17.515Z,1023.45
2017-05-15T12:08:17.543Z,1023.39
2017-05-15T12:10:17.600Z,1023.29
2017-05-15T12:11:17.629Z,1023.31
2017-05-15T12:12:17.656Z,1023.33
2017-05-15T12:13:17.685Z,1023.28
2017-05-15T12:14:17.713Z,1023.33
2017-05-15T12:15:17.743Z,1023.35
2017-05-15T12:16:17.770Z,1023.38
2017-05-15T12:17:17.799Z,1023.32
2017-05-15T12:18:17.828Z,1023.29
2017-05-15T12:19:17.856Z,1023.25
2017-05-15T12:20:17.884Z,1023.25
2017-05-15T12:21:17.913Z,1023.28
2017-05-15T12:22:17.942Z,1023.24
2017-05-15T12:23:17.969Z,1023.34
2017-05-15T12:24:17.998Z,1023.39
2017-05-15T12:26:18.055Z,1023.21
2017-05-15T12:27:18.086Z,1023.28
2017-05-15T12:28:18.111Z,1023.34
2017-05-15T12:29:18.140Z,1023.34
2017-05-15T12:30:18.168Z,1023.4
2017-05-15T12:31:18.195Z,1023.36
2017-05-15T12:32:18.224Z,1023.43
2017-05-15T12:33:18.253Z,1023.42
2017-05-15T12:34:18.281Z,1023.36
2017-05-15T12:35:18.310Z,1023.35
2017-05-15T12:36:18.337Z,1023.37
2017-05-15T12:37:18.366Z,1023.47
2017-05-15T12:38:18.395Z,1023.41
2017-05-15T12:39:18.421Z,1023.43
2017-05-15T12:40:18.450Z,1023.42
2017-05-15T12:42:18.507Z,1023.43
2017-05-15T12:43:18.534Z,1023.41
2017-05-15T12:44:18.563Z,1023.44
2017-05-15T12:45:18.590Z,1023.45
2017-05-15T12:46:18.618Z,1023.44
2017-05-15T12:47:18.647Z,1023.43
2017-05-15T12:48:18.680Z,1023.4
2017-05-15T12:49:18.702Z,1023.4